EGQL/ADX METAR and TAF weather

Enter ICAO airport designator
Station Type Date Time Source
EGQL METAR 2019/12/13 13:50 UTC NOAA

EGQL 131350Z 28011KT 9999 -RA SCT030 BKN040 BKN050 07/03 Q0971 RMK BLU


Station Type Date Time Source
EGQL Decoded METAR 2019/12/13 13:50 UTC NOAA

Leuchars, United Kingdom (EGQL) 56-23N 002-52W 0M
Dec 13, 2019 - 08:50 AM EST / 2019.12.13 1350 UTC
Wind: from the W (280 degrees) at 13 MPH (11 KT):0
Visibility: greater than 7 mile(s):0
Sky conditions: mostly cloudy
Weather: light rain
Temperature: 44 F (7 C)
Dew Point: 37 F (3 C)
Relative Humidity: 75%
Pressure (altimeter): 28.67 in. Hg (0971 hPa)
ob: EGQL 131350Z 28011KT 9999 -RA SCT030 BKN040 BKN050 07/03 Q0971 RMK BLU
cycle: 14

Station Type Date Time Source
EGQL TAF 2011/07/27 06:03 UTC NOAA

TAF TAF
AMD EGQL 270424Z 2706/2724 14005KT 9999 BKN020 PROB30
TEMPO 2706/2708 SCT012
BECMG 2708/2710 SCT025

Example: see airport list